Time;durP1;ratioP1;P1;durP2;ratioP2;P2;SDS_P1;SDS_P2;PMS_P1;PMS_P2;Temp;Humidity;BMP_temperature;BMP_pressure;BME280_temperature;BME280_humidity;BME280_pressure;Samples;Min_cycle;Max_cycle;Signal;HPM_P1;HPM_P2
2024/03/29 00:00:26;;;;;;;12.33;5.33;;;;;;;6.60;100.00;98566.25;5061833;28;20495;-82
2024/03/29 00:02:51;;;;;;;;;;;;;;;6.63;100.00;98553.44;5068114;28;20075;-84
2024/03/29 00:05:17;;;;;;;4.90;2.97;;;;;;;6.63;100.00;98529.56;5060684;28;20394;-84
2024/03/29 00:07:42;;;;;;;7.57;3.50;;;;;;;6.73;100.00;98521.28;5046212;28;20033;-84
2024/03/29 00:10:08;;;;;;;10.80;3.97;;;;;;;6.83;100.00;98523.59;5051190;28;20028;-85
2024/03/29 00:12:33;;;;;;;8.38;3.85;;;;;;;6.76;100.00;98487.22;5068923;28;20032;-84
2024/03/29 00:14:59;;;;;;;5.87;3.70;;;;;;;6.82;100.00;98477.69;5051813;28;20025;-85
2024/03/29 00:17:24;;;;;;;7.82;4.88;;;;;;;6.87;100.00;98463.88;5047269;28;20938;-83
2024/03/29 00:19:50;;;;;;;6.50;3.70;;;;;;;6.92;100.00;98451.63;5083526;28;20043;-83
2024/03/29 00:22:15;;;;;;;10.63;4.60;;;;;;;6.92;100.00;98450.81;5072575;28;20039;-85
2024/03/29 00:24:40;;;;;;;5.23;2.87;;;;;;;7.00;100.00;98437.44;5066462;28;20063;-82
2024/03/29 00:27:06;;;;;;;6.20;2.60;;;;;;;6.95;100.00;98413.28;5054153;28;20055;-85
2024/03/29 00:29:31;;;;;;;6.83;2.87;;;;;;;6.79;100.00;98389.75;5059797;28;20040;-86
2024/03/29 00:31:57;;;;;;;4.57;2.63;;;;;;;6.85;100.00;98399.56;5070063;28;20645;-85
2024/03/29 00:34:22;;;;;;;4.57;3.70;;;;;;;6.86;100.00;98387.94;5062208;28;20041;-86
2024/03/29 00:36:48;;;;;;;7.37;3.10;;;;;;;6.81;100.00;98380.56;5057367;28;20519;-85
2024/03/29 00:39:13;;;;;;;5.95;2.63;;;;;;;6.82;100.00;98397.31;5069347;28;20274;-85
2024/03/29 00:41:38;;;;;;;7.40;3.33;;;;;;;6.80;100.00;98386.09;5065455;28;20170;-84
2024/03/29 00:44:04;;;;;;;5.03;3.13;;;;;;;6.80;100.00;98402.00;5057148;28;20081;-85
2024/03/29 00:46:29;;;;;;;4.50;2.93;;;;;;;6.72;100.00;98406.44;5059566;28;20279;-85
2024/03/29 00:48:54;;;;;;;6.80;2.50;;;;;;;6.82;100.00;98392.84;5045191;28;20078;-82
2024/03/29 00:51:20;;;;;;;5.73;2.57;;;;;;;6.88;100.00;98380.59;5077640;28;20075;-81
2024/03/29 00:53:45;;;;;;;9.80;2.57;;;;;;;6.95;100.00;98346.97;5065572;28;20044;-83
2024/03/29 00:56:11;;;;;;;6.13;2.22;;;;;;;6.95;100.00;98345.16;5072360;28;20035;-84
2024/03/29 00:58:36;;;;;;;6.43;2.45;;;;;;;6.91;100.00;98330.66;5068243;28;20036;-85
2024/03/29 01:01:02;;;;;;;5.57;2.23;;;;;;;6.93;100.00;98307.41;5072473;28;20437;-86
2024/03/29 01:03:28;;;;;;;5.65;2.15;;;;;;;7.01;100.00;98306.41;5054836;28;20553;-85
2024/03/29 01:05:54;;;;;;;5.28;2.75;;;;;;;6.93;100.00;98272.06;5051681;28;20122;-85
2024/03/29 01:08:20;;;;;;;3.88;1.88;;;;;;;6.90;100.00;98262.69;5064972;28;20090;-85
2024/03/29 01:10:46;;;;;;;3.67;2.08;;;;;;;7.01;100.00;98295.78;5035839;28;20048;-85
2024/03/29 01:13:11;;;;;;;3.67;2.15;;;;;;;6.93;100.00;98267.63;5047935;28;20036;-84
2024/03/29 01:15:37;;;;;;;4.07;1.70;;;;;;;6.88;100.00;98263.91;5066030;28;20107;-85
2024/03/29 01:18:03;;;;;;;6.33;2.00;;;;;;;7.00;100.00;98256.19;5055063;28;20041;-84
2024/03/29 01:20:28;;;;;;;3.72;1.55;;;;;;;6.90;100.00;98235.34;5052424;28;20266;-85
2024/03/29 01:22:54;;;;;;;4.93;2.05;;;;;;;6.94;100.00;98257.81;5055553;28;20055;-85
2024/03/29 01:25:21;;;;;;;10.82;2.20;;;;;;;6.93;100.00;98249.03;5053698;28;20141;-83
2024/03/29 01:27:46;;;;;;;6.78;3.13;;;;;;;6.89;100.00;98239.03;5065440;28;20043;-85
2024/03/29 01:30:12;;;;;;;6.00;1.88;;;;;;;6.85;100.00;98227.19;5066390;28;20032;-85
2024/03/29 01:32:37;;;;;;;3.22;1.67;;;;;;;6.81;100.00;98242.66;5063491;28;20083;-84
2024/03/29 01:35:04;;;;;;;4.33;2.07;;;;;;;6.79;100.00;98235.91;5061341;28;20098;-83
2024/03/29 01:37:30;;;;;;;;;;;;;;;6.91;100.00;98255.56;5066358;28;20267;-85
2024/03/29 01:39:56;;;;;;;4.70;2.00;;;;;;;6.90;100.00;98257.38;5065683;28;20421;-85
2024/03/29 01:42:21;;;;;;;4.80;2.05;;;;;;;6.81;100.00;98236.53;5043646;28;20036;-84
2024/03/29 01:44:47;;;;;;;7.75;2.00;;;;;;;6.79;100.00;98241.22;5064174;28;20033;-84
2024/03/29 01:47:13;;;;;;;5.57;2.00;;;;;;;6.72;100.00;98234.09;5058951;28;20036;-84
2024/03/29 01:49:39;;;;;;;3.90;1.85;;;;;;;6.67;100.00;98268.34;5054760;28;20648;-84
2024/03/29 01:52:06;;;;;;;5.40;2.03;;;;;;;6.71;100.00;98290.78;5068405;28;20040;-82
2024/03/29 01:54:32;;;;;;;4.80;2.65;;;;;;;6.60;100.00;98283.38;5054795;28;20039;-84
2024/03/29 01:56:58;;;;;;;4.57;1.85;;;;;;;6.60;100.00;98315.19;5061857;28;20028;-82
2024/03/29 01:59:24;;;;;;;;;;;;;;;6.37;100.00;98312.00;5043363;28;20048;-84
2024/03/29 02:01:50;;;;;;;5.80;1.67;;;;;;;6.38;100.00;98369.31;5064062;28;19917;-82
2024/03/29 02:04:15;;;;;;;4.85;1.85;;;;;;;6.25;100.00;98394.72;5054615;28;20043;-82
2024/03/29 02:06:40;;;;;;;5.95;1.77;;;;;;;6.21;100.00;98414.66;5071353;28;20039;-83
2024/03/29 02:09:06;;;;;;;4.77;2.23;;;;;;;6.24;100.00;98438.09;5065414;28;20029;-83
2024/03/29 02:11:32;;;;;;;4.63;1.75;;;;;;;6.16;100.00;98438.25;5059284;28;20487;-84
2024/03/29 02:13:57;;;;;;;7.30;2.15;;;;;;;6.13;100.00;98454.50;5054128;28;20040;-83
2024/03/29 02:16:23;;;;;;;2.87;1.50;;;;;;;6.09;100.00;98469.97;5059196;28;20025;-84
2024/03/29 02:18:48;;;;;;;4.30;1.80;;;;;;;6.03;100.00;98461.97;5079326;28;20036;-84
2024/03/29 02:21:14;;;;;;;4.33;1.60;;;;;;;6.05;100.00;98492.53;5054254;28;20039;-84
2024/03/29 02:23:43;;;;;;;5.68;1.85;;;;;;;6.10;100.00;98503.38;5075623;28;20032;-82
2024/03/29 02:26:10;;;;;;;3.47;1.90;;;;;;;6.03;100.00;98485.78;5050293;28;20029;-85
2024/03/29 02:28:35;;;;;;;9.77;2.25;;;;;;;5.85;100.00;98481.72;5057346;28;20483;-80
2024/03/29 02:31:01;;;;;;;13.40;1.83;;;;;;;5.96;100.00;98520.16;5054135;28;20043;-82
2024/03/29 02:33:26;;;;;;;6.28;1.63;;;;;;;5.85;100.00;98507.38;5066953;28;20863;-83
2024/03/29 02:35:51;;;;;;;3.67;1.37;;;;;;;5.78;100.00;98515.22;5054106;28;20043;-83
2024/03/29 02:38:17;;;;;;;7.20;2.67;;;;;;;5.88;100.00;98549.38;5062778;28;20107;-84
2024/03/29 02:40:42;;;;;;;8.27;2.10;;;;;;;5.83;100.00;98528.75;5071447;28;20281;-84
2024/03/29 02:43:08;;;;;;;5.63;1.50;;;;;;;5.86;100.00;98543.44;5050574;28;20111;-84
2024/03/29 02:45:33;;;;;;;2.97;1.47;;;;;;;5.80;100.00;98513.22;5089479;28;20062;-80
2024/03/29 02:47:58;;;;;;;2.10;1.50;;;;;;;5.89;100.00;98546.53;5083869;28;20024;-82
2024/03/29 02:50:24;;;;;;;2.78;1.42;;;;;;;5.93;100.00;98541.69;5069013;28;20359;-84
2024/03/29 02:52:49;;;;;;;6.38;1.30;;;;;;;5.85;100.00;98515.31;5069248;28;20114;-84
2024/03/29 02:55:15;;;;;;;3.40;1.77;;;;;;;5.78;100.00;98517.06;5060511;28;20040;-84
2024/03/29 02:57:40;;;;;;;6.05;1.63;;;;;;;5.86;100.00;98514.31;5060822;28;20078;-82
2024/03/29 03:00:06;;;;;;;4.47;1.60;;;;;;;5.84;100.00;98513.69;5053866;28;20039;-83
2024/03/29 03:02:32;;;;;;;10.18;2.17;;;;;;;5.72;100.00;98486.88;5063437;28;20494;-84
2024/03/29 03:04:59;;;;;;;6.50;2.17;;;;;;;5.76;100.00;98488.16;5058375;28;20039;-84
2024/03/29 03:12:53;;;;;;;1.75;1.10;;;;;;;5.69;100.00;98517.19;5073268;28;20031;-82
2024/03/29 03:15:18;;;;;;;3.57;1.80;;;;;;;5.73;100.00;98512.31;5076465;28;20051;-83
2024/03/29 03:17:43;;;;;;;2.73;1.60;;;;;;;5.69;100.00;98521.66;5077523;28;20290;-84
2024/03/29 03:20:09;;;;;;;3.10;1.80;;;;;;;5.72;100.00;98513.34;5063603;28;20047;-83
2024/03/29 03:22:35;;;;;;;4.40;1.33;;;;;;;5.68;100.00;98507.59;5085166;28;20301;-79
2024/03/29 03:25:00;;;;;;;5.07;2.15;;;;;;;5.55;100.00;98491.56;5065628;28;20047;-81
2024/03/29 03:27:26;;;;;;;7.27;1.20;;;;;;;5.69;100.00;98524.31;5093973;28;20062;-82
2024/03/29 03:29:51;;;;;;;5.07;1.50;;;;;;;5.66;100.00;98501.66;5092959;28;20029;-82
2024/03/29 03:32:16;;;;;;;5.73;1.50;;;;;;;5.72;100.00;98502.75;5082553;28;20044;-83
2024/03/29 03:34:42;;;;;;;5.03;1.30;;;;;;;5.62;100.00;98491.63;5074009;28;20345;-81
2024/03/29 03:37:07;;;;;;;7.03;1.73;;;;;;;5.58;100.00;98487.72;5086914;28;20033;-82
2024/03/29 03:39:33;;;;;;;3.67;1.30;;;;;;;5.55;100.00;98485.44;5079916;28;20028;-81
2024/03/29 03:41:58;;;;;;;6.90;1.98;;;;;;;5.53;100.00;98488.28;5080431;28;20123;-83
2024/03/29 03:44:24;;;;;;;2.37;1.20;;;;;;;5.56;100.00;98493.19;5074994;28;20032;-83
2024/03/29 03:46:50;;;;;;;;;;;;;;;5.56;100.00;98472.00;5070353;28;20279;-83
2024/03/29 03:49:16;;;;;;;3.90;1.80;;;;;;;5.54;100.00;98473.22;5074349;28;19965;-83
2024/03/29 03:51:41;;;;;;;8.67;2.27;;;;;;;5.55;100.00;98478.31;5055015;28;20103;-83
2024/03/29 03:54:06;;;;;;;4.22;1.70;;;;;;;5.48;100.00;98462.38;5060665;28;20715;-83
2024/03/29 03:56:32;;;;;;;5.90;2.23;;;;;;;5.46;100.00;98461.72;5070111;28;20519;-82
2024/03/29 03:58:57;;;;;;;4.07;1.60;;;;;;;5.48;100.00;98480.91;5056587;28;20037;-83
2024/03/29 04:01:23;;;;;;;3.00;1.75;;;;;;;5.34;100.00;98476.44;5060378;28;20395;-82
2024/03/29 04:03:48;;;;;;;3.60;1.47;;;;;;;5.37;100.00;98497.22;5074478;28;20088;-83
2024/03/29 04:06:14;;;;;;;3.65;1.23;;;;;;;5.54;100.00;98505.78;5045890;28;20021;-81
2024/03/29 04:08:39;;;;;;;4.83;1.53;;;;;;;5.54;100.00;98473.22;5049331;28;20561;-82
2024/03/29 04:11:04;;;;;;;5.17;1.30;;;;;;;5.44;100.00;98452.34;5049520;28;20089;-82
2024/03/29 04:13:30;;;;;;;2.83;1.10;;;;;;;5.37;100.00;98489.28;5069960;28;20291;-78
2024/03/29 04:16:02;;;;;;;4.03;1.27;;;;;;;5.38;100.00;98513.94;5049000;28;20033;-83
2024/03/29 04:18:28;;;;;;;2.20;1.15;;;;;;;5.42;100.00;98534.53;5073768;28;20024;-83
2024/03/29 04:21:01;;;;;;;4.07;1.13;;;;;;;5.36;100.00;98523.88;5064396;28;20111;-83
2024/03/29 04:23:26;;;;;;;2.47;1.30;;;;;;;5.41;100.00;98553.28;5068308;28;20036;-83
2024/03/29 04:25:56;;;;;;;4.03;1.15;;;;;;;5.28;100.00;98522.97;5068632;28;20037;-83
2024/03/29 04:28:22;;;;;;;2.60;1.13;;;;;;;5.33;100.00;98558.63;5073659;28;20040;-84
2024/03/29 04:30:58;;;;;;;5.03;1.13;;;;;;;5.46;100.00;98564.94;5052794;28;20030;-83
2024/03/29 04:33:24;;;;;;;1.52;1.10;;;;;;;5.34;100.00;98542.59;5052549;28;20028;-83
2024/03/29 04:36:02;;;;;;;4.57;1.25;;;;;;;5.32;100.00;98555.19;5073419;28;20131;-83
2024/03/29 04:38:28;;;;;;;7.95;1.55;;;;;;;5.34;100.00;98544.41;5066357;28;20123;-83
2024/03/29 04:40:55;;;;;;;3.35;0.80;;;;;;;5.36;100.00;98540.59;5057757;28;20024;-83
2024/03/29 04:43:25;;;;;;;2.85;0.98;;;;;;;5.38;100.00;98535.09;5057694;28;20047;-83
2024/03/29 04:46:14;;;;;;;8.98;1.40;;;;;;;5.34;100.00;98513.50;5069189;28;20738;-82
2024/03/29 04:48:41;;;;;;;3.85;1.05;;;;;;;5.42;100.00;98515.22;5064201;28;20043;-82
2024/03/29 04:51:08;;;;;;;4.28;1.13;;;;;;;5.35;100.00;98504.53;5056423;28;20043;-83
2024/03/29 04:53:36;;;;;;;1.92;1.00;;;;;;;5.42;100.00;98509.91;5053136;28;20020;-82
2024/03/29 04:56:02;;;;;;;5.30;1.40;;;;;;;5.39;100.00;98481.19;5066949;28;20036;-83
2024/03/29 04:58:28;;;;;;;5.32;1.58;;;;;;;5.52;100.00;98501.69;5066168;28;20032;-83
2024/03/29 05:00:54;;;;;;;;;;;;;;;5.50;100.00;98492.13;5060156;28;20095;-83
2024/03/29 05:03:20;;;;;;;3.17;1.30;;;;;;;5.43;100.00;98462.09;5060779;28;21111;-84
2024/03/29 05:05:46;;;;;;;4.95;0.77;;;;;;;5.45;100.00;98472.50;5083570;28;20004;-81
2024/03/29 05:08:12;;;;;;;4.15;1.13;;;;;;;5.57;100.00;98462.25;5084377;28;20541;-83
2024/03/29 05:10:39;;;;;;;3.70;1.10;;;;;;;5.61;100.00;98463.53;5062980;28;20033;-84
2024/03/29 05:13:05;;;;;;;2.05;0.90;;;;;;;5.67;100.00;98445.06;5085245;28;20081;-81
2024/03/29 05:15:30;;;;;;;3.22;1.00;;;;;;;5.60;100.00;98408.94;5059078;28;20029;-80
2024/03/29 05:17:56;;;;;;;4.38;1.25;;;;;;;5.56;100.00;98412.97;5066975;28;20036;-84
2024/03/29 05:20:21;;;;;;;3.13;1.00;;;;;;;5.66;100.00;98408.19;5066131;28;20032;-82
2024/03/29 05:22:47;;;;;;;2.40;1.33;;;;;;;5.71;100.00;98389.91;5078671;28;20277;-84
2024/03/29 05:25:12;;;;;;;2.83;0.70;;;;;;;5.69;100.00;98378.69;5066321;28;20032;-84
2024/03/29 05:27:37;;;;;;;3.10;0.60;;;;;;;5.69;100.00;98381.34;5066332;28;20120;-85
2024/03/29 05:30:03;;;;;;;7.30;1.13;;;;;;;5.76;100.00;98355.75;5075209;28;20072;-84
2024/03/29 05:32:30;;;;;;;1.92;0.90;;;;;;;5.69;100.00;98342.44;5055642;28;20070;-85
2024/03/29 05:34:55;;;;;;;5.68;1.52;;;;;;;5.87;100.00;98355.22;5054836;28;20040;-83
2024/03/29 05:37:21;;;;;;;2.60;0.80;;;;;;;5.70;100.00;98299.06;5060141;28;20067;-84
2024/03/29 05:39:47;;;;;;;1.70;0.88;;;;;;;5.86;100.00;98328.94;5062628;28;20029;-83
2024/03/29 05:42:13;;;;;;;6.03;1.27;;;;;;;5.71;100.00;98300.72;5051664;28;20448;-84
2024/03/29 05:44:38;;;;;;;5.40;1.10;;;;;;;5.86;100.00;98331.59;5050142;28;20390;-84
2024/03/29 05:47:07;;;;;;;6.93;1.30;;;;;;;5.71;100.00;98316.63;5060842;28;20028;-83
2024/03/29 05:49:33;;;;;;;2.75;0.98;;;;;;;5.72;100.00;98335.97;5070965;28;20071;-84
2024/03/29 05:51:58;;;;;;;4.10;0.93;;;;;;;5.78;100.00;98332.53;5051648;28;20020;-84
2024/03/29 05:54:24;;;;;;;4.53;1.60;;;;;;;5.83;100.00;98331.97;5054571;28;20044;-84
2024/03/29 05:56:50;;;;;;;2.15;0.65;;;;;;;5.82;100.00;98312.59;5059766;28;20024;-82
2024/03/29 05:59:15;;;;;;;2.42;1.23;;;;;;;5.89;100.00;98318.78;5076021;28;20097;-83
2024/03/29 06:01:40;;;;;;;5.17;0.90;;;;;;;5.93;100.00;98330.63;5057810;28;20086;-83
2024/03/29 06:04:14;;;;;;;2.23;1.00;;;;;;;6.03;100.00;98334.81;5072848;28;20283;-82
2024/03/29 06:06:39;;;;;;;1.92;1.02;;;;;;;5.90;100.00;98309.03;5075627;28;20028;-82
2024/03/29 06:09:05;;;;;;;7.87;1.10;;;;;;;6.02;100.00;98335.84;5063375;28;20021;-80
2024/03/29 06:11:31;;;;;;;5.45;1.05;;;;;;;6.00;100.00;98306.88;5068033;28;20036;-83
2024/03/29 06:19:09;;;;;;;4.45;1.48;;;;;;;6.32;100.00;98251.63;5073386;28;20589;-84
2024/03/29 06:21:42;;;;;;;6.47;1.65;;;;;;;6.19;100.00;98214.50;5057343;28;20036;-84
2024/03/29 06:24:12;;;;;;;4.22;1.60;;;;;;;6.06;100.00;98201.97;5054067;28;20040;-84
2024/03/29 06:26:38;;;;;;;4.18;1.40;;;;;;;6.08;100.00;98210.53;5069902;28;20079;-83
2024/03/29 06:29:03;;;;;;;8.07;1.63;;;;;;;6.22;100.00;98257.28;5062432;28;20060;-83
2024/03/29 06:31:29;;;;;;;2.80;1.23;;;;;;;6.22;100.00;98227.34;5069407;28;20902;-84
2024/03/29 06:33:55;;;;;;;4.13;1.30;;;;;;;6.31;100.00;98263.25;5052315;28;20056;-83
2024/03/29 06:36:20;;;;;;;3.08;1.40;;;;;;;6.23;100.00;98198.00;5067888;28;20127;-87
2024/03/29 06:38:46;;;;;;;3.70;1.20;;;;;;;6.20;100.00;98226.72;5078145;28;20132;-84
2024/03/29 06:41:12;;;;;;;6.70;2.13;;;;;;;6.43;100.00;98263.53;5061845;28;20086;-85
2024/03/29 06:43:37;;;;;;;4.35;1.10;;;;;;;6.47;100.00;98232.97;5064017;28;20033;-87
2024/03/29 06:46:03;;;;;;;2.72;0.90;;;;;;;6.69;100.00;98268.94;5058616;28;20089;-86
2024/03/29 06:48:32;;;;;;;3.45;1.10;;;;;;;6.45;100.00;98192.59;5060126;28;20036;-83
2024/03/29 06:50:58;;;;;;;1.73;0.75;;;;;;;6.49;100.00;98234.41;5065510;28;20132;-85
2024/03/29 06:53:24;;;;;;;1.90;0.70;;;;;;;6.49;100.00;98260.09;5054752;28;20044;-86
2024/03/29 06:55:49;;;;;;;4.82;1.02;;;;;;;6.69;100.00;98305.25;5076396;28;20044;-84
2024/03/29 06:58:15;;;;;;;5.43;1.23;;;;;;;6.64;100.00;98313.78;5074280;28;20036;-83
2024/03/29 07:00:40;;;;;;;4.43;1.20;;;;;;;6.70;100.00;98305.06;5047886;28;20123;-84
2024/03/29 07:03:07;;;;;;;8.27;1.67;;;;;;;6.47;100.00;98278.03;5055562;28;20040;-85
2024/03/29 07:05:32;;;;;;;;;;;;;;;6.65;100.00;98311.94;5041275;28;20020;-85
2024/03/29 07:07:59;;;;;;;2.67;1.27;;;;;;;6.55;100.00;98293.75;5054450;28;20286;-84
2024/03/29 07:10:24;;;;;;;4.45;1.30;;;;;;;6.53;100.00;98287.81;5076337;28;20055;-81
2024/03/29 07:12:50;;;;;;;3.17;0.87;;;;;;;6.59;100.00;98287.06;5061313;28;20082;-83
2024/03/29 07:15:15;;;;;;;2.83;1.37;;;;;;;6.69;100.00;98303.41;5083656;28;20301;-83
2024/03/29 07:17:43;;;;;;;4.72;1.15;;;;;;;6.66;100.00;98281.78;5080803;28;20028;-84
2024/03/29 07:20:09;;;;;;;4.57;1.33;;;;;;;6.76;100.00;98279.56;5055574;28;20047;-85
2024/03/29 07:22:34;;;;;;;;;;;;;;;7.00;100.00;98286.22;5083617;28;20025;-85
2024/03/29 07:25:00;;;;;;;7.88;1.20;;;;;;;6.93;100.00;98224.31;5051835;28;19939;-84
2024/03/29 07:27:25;;;;;;;8.23;1.57;;;;;;;7.00;100.00;98209.28;5075002;28;20047;-83
2024/03/29 07:29:51;;;;;;;5.25;1.00;;;;;;;7.10;100.00;98228.25;5075544;28;20083;-86
2024/03/29 07:32:17;;;;;;;6.97;2.40;;;;;;;7.04;100.00;98168.03;5066313;28;20411;-86
2024/03/29 07:34:42;;;;;;;10.03;1.20;;;;;;;7.22;100.00;98179.91;5080749;28;20037;-86
2024/03/29 07:37:09;;;;;;;2.13;1.07;;;;;;;7.60;100.00;98215.41;5064830;28;20301;-85
2024/03/29 07:39:35;;;;;;;5.68;1.25;;;;;;;7.50;100.00;98111.47;5049976;28;20043;-83
2024/03/29 07:42:00;;;;;;;3.80;1.23;;;;;;;7.72;100.00;98164.34;5054471;28;20028;-83
2024/03/29 07:44:25;;;;;;;4.77;1.47;;;;;;;7.56;100.00;98083.28;5059292;28;20051;-82
2024/03/29 07:46:51;;;;;;;1.60;0.60;;;;;;;7.61;100.00;98124.13;5064196;28;20032;-85
2024/03/29 07:49:21;;;;;;;3.13;1.00;;;;;;;7.68;100.00;98137.41;5073345;28;20284;-83
2024/03/29 07:51:46;;;;;;;4.97;0.90;;;;;;;7.83;100.00;98113.25;5067186;28;20123;-84
2024/03/29 07:54:11;;;;;;;3.93;0.80;;;;;;;7.98;100.00;98105.00;5071427;28;20061;-84
2024/03/29 07:56:37;;;;;;;2.67;0.90;;;;;;;8.03;100.00;98129.13;5071045;28;20036;-84
2024/03/29 07:59:02;;;;;;;3.23;1.00;;;;;;;7.99;100.00;98054.31;5080881;28;20040;-85
2024/03/29 08:01:27;;;;;;;5.00;1.80;;;;;;;8.19;100.00;98074.66;5061851;28;20044;-85
2024/03/29 08:03:53;;;;;;;3.33;1.13;;;;;;;8.02;100.00;98055.75;5063402;28;20115;-86
2024/03/29 08:06:19;;;;;;;2.90;1.00;;;;;;;7.95;100.00;98039.00;5053536;28;20801;-86
2024/03/29 08:08:45;;;;;;;3.50;1.73;;;;;;;8.06;100.00;98109.28;5062706;28;20071;-83
2024/03/29 08:11:11;;;;;;;5.32;1.25;;;;;;;7.91;100.00;98025.31;5061738;28;20040;-86
2024/03/29 08:13:39;;;;;;;3.72;1.02;;;;;;;8.09;100.00;98109.66;5053148;28;20039;-85
2024/03/29 08:16:04;;;;;;;2.05;0.75;;;;;;;8.04;100.00;98081.06;5059072;28;20084;-85
2024/03/29 08:18:31;;;;;;;1.88;1.27;;;;;;;8.16;100.00;98138.88;5077267;28;20055;-83
2024/03/29 08:20:58;;;;;;;2.63;1.00;;;;;;;7.98;100.00;98073.97;5066518;28;20486;-85
2024/03/29 08:23:23;;;;;;;3.60;0.98;;;;;;;8.24;100.00;98115.53;5062504;28;20033;-86
2024/03/29 08:25:51;;;;;;;5.73;1.30;;;;;;;8.12;100.00;98069.38;5054929;28;20817;-86
2024/03/29 08:28:17;;;;;;;2.65;0.90;;;;;;;7.91;100.00;97998.75;5046351;28;20539;-85
2024/03/29 08:30:42;;;;;;;2.67;0.85;;;;;;;8.02;100.00;98117.66;5057424;28;20062;-85
2024/03/29 08:33:07;;;;;;;1.50;0.80;;;;;;;8.00;100.00;98087.00;5063757;28;20064;-85
2024/03/29 08:35:34;;;;;;;5.13;1.00;;;;;;;7.94;100.00;98120.56;5045977;28;20040;-85
2024/03/29 08:38:01;;;;;;;7.25;1.77;;;;;;;7.95;100.00;98122.19;5056142;28;20825;-82
2024/03/29 08:40:34;;;;;;;3.92;0.90;;;;;;;7.96;100.00;98134.47;5058862;28;20028;-85
2024/03/29 08:42:59;;;;;;;3.53;1.05;;;;;;;8.14;100.00;98147.06;5065628;28;20918;-85
2024/03/29 08:45:24;;;;;;;3.97;1.00;;;;;;;8.00;100.00;98050.63;5069548;28;20033;-83
2024/03/29 08:47:50;;;;;;;4.23;0.90;;;;;;;8.39;100.00;98172.94;5054035;28;20090;-84
2024/03/29 08:50:15;;;;;;;2.23;0.80;;;;;;;8.51;100.00;98171.28;5048398;28;20127;-82
2024/03/29 08:52:41;;;;;;;1.85;0.88;;;;;;;8.66;100.00;98177.13;5061737;28;20279;-85
2024/03/29 08:55:07;;;;;;;1.95;1.13;;;;;;;8.33;100.00;98086.84;5064382;28;20036;-85
2024/03/29 08:57:33;;;;;;;3.95;0.90;;;;;;;8.71;100.00;98218.22;5069548;28;20029;-84
2024/03/29 08:59:58;;;;;;;2.53;0.95;;;;;;;8.64;100.00;98165.09;5052995;28;20539;-85
2024/03/29 09:02:24;;;;;;;2.90;0.90;;;;;;;8.74;100.00;98204.53;5059936;23;20111;-78
2024/03/29 09:04:49;;;;;;;7.10;1.17;;;;;;;8.78;100.00;98195.91;5048147;28;20314;-79
2024/03/29 09:07:15;;;;;;;8.77;1.40;;;;;;;8.81;100.00;98222.06;5085431;28;20773;-79
2024/03/29 09:09:41;;;;;;;2.63;0.80;;;;;;;8.72;100.00;98132.91;5089371;28;20149;-78
2024/03/29 09:12:07;;;;;;;;;;;;;;;9.24;100.00;98242.69;5099807;28;20024;-78
2024/03/29 09:14:33;;;;;;;2.38;0.60;;;;;;;9.02;100.00;98142.94;5075773;28;19947;-79
2024/03/29 09:16:58;;;;;;;2.83;1.00;;;;;;;9.09;100.00;98090.47;5065627;28;20082;-79
2024/03/29 09:19:24;;;;;;;2.47;0.77;;;;;;;9.19;100.00;98112.09;5100893;28;20900;-78
2024/03/29 09:21:50;;;;;;;8.38;1.77;;;;;;;9.14;100.00;98103.13;5065609;28;20037;-79
2024/03/29 09:24:17;;;;;;;7.82;1.33;;;;;;;9.25;100.00;98127.19;5086631;28;20093;-79
2024/03/29 09:26:43;;;;;;;4.85;1.20;;;;;;;9.06;100.00;98129.00;5097809;28;20039;-79
2024/03/29 09:29:09;;;;;;;2.22;0.80;;;;;;;8.99;100.00;98058.19;5091697;22;20033;-76
2024/03/29 09:31:34;;;;;;;2.47;1.02;;;;;;;8.85;100.00;98076.16;5100326;28;20028;-76
2024/03/29 09:34:00;;;;;;;2.90;1.05;;;;;;;9.01;100.00;98147.47;5083970;28;20414;-76
2024/03/29 09:36:25;;;;;;;3.57;0.93;;;;;;;8.70;100.00;98062.31;5066735;28;20061;-76
2024/03/29 09:38:51;;;;;;;2.13;0.77;;;;;;;8.85;100.00;98076.16;5085017;28;20525;-76
2024/03/29 09:41:21;;;;;;;5.63;1.23;;;;;;;8.93;100.00;98115.78;5083712;28;20028;-76
2024/03/29 09:43:47;;;;;;;5.32;1.23;;;;;;;9.03;100.00;98168.50;5075542;28;20069;-76
2024/03/29 09:46:14;;;;;;;2.83;1.02;;;;;;;8.95;100.00;98111.06;5072441;28;20028;-76
2024/03/29 09:48:41;;;;;;;5.43;1.10;;;;;;;8.90;100.00;98110.06;5083738;28;20032;-76
2024/03/29 09:51:07;;;;;;;3.05;0.90;;;;;;;8.72;100.00;98089.53;5098389;28;20146;-76
2024/03/29 09:53:38;;;;;;;4.00;1.27;;;;;;;8.77;100.00;98194.25;5084520;28;20047;-76
2024/03/29 09:56:05;;;;;;;5.50;1.00;;;;;;;8.82;100.00;98199.75;5100165;28;20032;-76
2024/03/29 09:58:31;;;;;;;6.72;1.30;;;;;;;9.02;100.00;98281.34;5074792;28;20040;-76
2024/03/29 10:00:57;;;;;;;2.35;1.10;;;;;;;9.18;100.00;98286.16;5066134;28;20045;-76
2024/03/29 10:03:28;;;;;;;2.90;1.33;;;;;;;9.14;100.00;98246.88;5068180;28;20046;-76
2024/03/29 10:05:56;;;;;;;5.38;1.05;;;;;;;9.00;100.00;98283.38;5085522;28;20753;-76
2024/03/29 10:08:22;;;;;;;3.17;1.13;;;;;;;9.02;100.00;98291.97;5076935;28;20032;-76
2024/03/29 10:10:49;;;;;;;4.13;1.00;;;;;;;8.90;100.00;98314.94;5087088;28;20551;-76
2024/03/29 10:13:14;;;;;;;1.63;0.80;;;;;;;9.01;100.00;98336.41;5087638;28;20048;-76
2024/03/29 10:15:45;;;;;;;2.10;0.67;;;;;;;8.79;100.00;98276.53;5088292;28;20036;-76
2024/03/29 10:18:11;;;;;;;5.93;1.20;;;;;;;8.68;100.00;98312.56;5076085;28;20293;-76
2024/03/29 10:20:36;;;;;;;5.50;1.20;;;;;;;8.81;100.00;98397.66;5086721;28;20024;-76
2024/03/29 10:23:03;;;;;;;3.90;1.30;;;;;;;8.90;100.00;98410.72;5088243;28;20101;-76
2024/03/29 10:25:32;;;;;;;5.60;1.45;;;;;;;8.97;100.00;98438.19;5078507;28;20060;-75
2024/03/29 10:27:58;;;;;;;1.92;1.55;;;;;;;9.06;100.00;98447.53;5067376;28;20087;-76
2024/03/29 10:30:25;;;;;;;1.25;0.88;;;;;;;8.97;100.00;98412.38;5071303;28;20131;-75
2024/03/29 10:32:51;;;;;;;3.25;1.15;;;;;;;9.07;100.00;98457.19;5053797;28;20529;-76
2024/03/29 10:35:17;;;;;;;4.28;1.98;;;;;;;9.17;100.00;98540.09;5096992;28;20058;-76
2024/03/29 10:37:44;;;;;;;1.98;1.15;;;;;;;9.05;100.00;98481.34;5070196;28;20074;-76
2024/03/29 10:40:10;;;;;;;2.50;1.20;;;;;;;9.04;100.00;98516.16;5059897;28;20120;-76
2024/03/29 10:42:40;;;;;;;4.80;0.90;;;;;;;9.11;100.00;98524.97;5069732;28;20033;-76
2024/03/29 10:45:06;;;;;;;3.80;1.48;;;;;;;9.05;100.00;98555.88;5067889;28;20617;-76
2024/03/29 10:47:33;;;;;;;3.35;1.77;;;;;;;8.76;100.00;98593.53;5060388;28;20023;-76
2024/03/29 10:49:58;;;;;;;;;;;;;;;8.62;100.00;98715.06;5090486;28;20037;-76
2024/03/29 10:52:27;;;;;;;2.13;0.90;;;;;;;8.30;100.00;98830.84;5075750;28;20419;-75
2024/03/29 10:54:57;;;;;;;3.35;0.80;;;;;;;8.08;100.00;98907.16;5067153;28;20040;-76
2024/03/29 10:57:24;;;;;;;4.28;0.70;;;;;;;8.29;100.00;99048.06;5088605;28;20433;-76
2024/03/29 11:00:08;;;;;;;2.35;0.55;;;;;;;8.15;100.00;99080.84;5072683;28;20162;-76
2024/03/29 11:02:34;;;;;;;2.03;0.85;;;;;;;8.08;100.00;99122.44;5063131;28;20064;-76
2024/03/29 11:05:06;;;;;;;3.40;0.70;;;;;;;7.95;100.00;99160.31;5095668;28;20051;-75
2024/03/29 11:07:36;;;;;;;2.47;1.05;;;;;;;8.15;100.00;99205.78;5071372;28;20032;-76
2024/03/29 11:10:05;;;;;;;4.93;0.90;;;;;;;8.03;100.00;99163.72;5067263;28;20501;-76
2024/03/29 11:12:41;;;;;;;1.83;0.90;;;;;;;8.00;100.00;99145.44;5062994;28;20032;-76
2024/03/29 11:15:13;;;;;;;4.10;1.13;;;;;;;7.97;100.00;99172.41;5090447;28;20608;-75
2024/03/29 11:17:38;;;;;;;3.90;0.73;;;;;;;7.69;100.00;99150.16;5084801;28;20039;-75
2024/03/29 11:20:05;;;;;;;2.00;1.30;;;;;;;7.76;100.00;99175.78;5085692;28;20029;-76
2024/03/29 11:22:30;;;;;;;2.83;0.80;;;;;;;8.01;100.00;99179.00;5065768;28;20399;-76
2024/03/29 11:24:56;;;;;;;3.92;1.20;;;;;;;8.15;100.00;99157.94;5074700;28;20055;-75
2024/03/29 11:27:24;;;;;;;2.30;0.87;;;;;;;8.10;100.00;99129.25;5102546;28;20024;-75
2024/03/29 11:29:52;;;;;;;2.00;1.15;;;;;;;8.10;100.00;99102.66;5072385;28;20282;-76
2024/03/29 11:32:38;;;;;;;4.03;1.02;;;;;;;8.10;100.00;99100.00;5074088;28;20029;-76
2024/03/29 11:35:05;;;;;;;3.70;0.80;;;;;;;8.05;100.00;99059.84;5078958;28;20028;-76
2024/03/29 11:37:33;;;;;;;3.72;0.95;;;;;;;8.03;100.00;99036.13;5070533;28;20356;-75
2024/03/29 11:40:00;;;;;;;2.70;0.90;;;;;;;8.22;100.00;99057.81;5072119;28;20039;-75